Guigues, Canada
Current Conditions -  °F | °C
As of 11:00 AM on Tuesday 21 Oct 2014 (Local Time) from CYXR Reporting Station
Overcast Overcast  
Wind Chill: 25°   Ceiling: 2300
Heat Index: 34°   Visibility: 9mi
Dew Point: 28°   Wind: 12mph
Humidity: 81%   Direction: 20°NNE
Pressure: 30.22"   Gusts: 18mph
Location:  47.45°N, 79.43°W
Report Text: CYXR 211500Z AUTO 02010G16KT 9SM BKN023 OVC027 01/M02 A3022 RMK SLP247
Loading
Personal Weather Stations






























Interactive Weather Map
Tropical Storm Tracking
New forecast layout! Learn more

10-Day Weather Forecast

Advertisements
Track Severe Weather on mobile